createdAt,value
2022-08-07T00:00:59.464Z,25.23
2022-08-07T00:03:51.005Z,25.18
2022-08-07T00:07:01.455Z,25.14
2022-08-07T00:09:37.259Z,25.15
2022-08-07T00:15:17.056Z,25.12
2022-08-07T00:17:49.869Z,25.12
2022-08-07T00:20:40.434Z,25.14
2022-08-07T00:26:49.127Z,25.17
2022-08-07T00:29:14.139Z,25.14
2022-08-07T00:44:01.374Z,25.02
2022-08-07T00:56:03.351Z,24.77
2022-08-07T01:06:02.634Z,24.66
2022-08-07T01:12:36.630Z,24.58
2022-08-07T01:16:05.242Z,24.53
2022-08-07T01:18:59.804Z,24.55
2022-08-07T01:21:55.190Z,24.56
2022-08-07T01:24:35.631Z,24.55
2022-08-07T01:36:17.401Z,24.37
2022-08-07T01:39:39.648Z,24.31
2022-08-07T01:45:22.970Z,24.17
2022-08-07T01:48:46.721Z,24.11
2022-08-07T01:52:04.847Z,24.08
2022-08-07T01:54:58.891Z,24.03
2022-08-07T01:58:05.970Z,24.02
2022-08-07T02:01:59.425Z,23.98
2022-08-07T02:04:37.092Z,23.92
2022-08-07T02:07:13.177Z,23.87
2022-08-07T02:10:22.183Z,23.83
2022-08-07T02:16:11.933Z,23.77
2022-08-07T02:20:04.374Z,23.76
2022-08-07T02:22:54.846Z,23.73
2022-08-07T02:26:31.624Z,23.66
2022-08-07T02:29:13.685Z,23.62
2022-08-07T02:40:02.193Z,23.55
2022-08-07T02:43:12.649Z,23.57
2022-08-07T02:46:05.976Z,23.53
2022-08-07T02:49:28.683Z,23.52
2022-08-07T02:52:11.013Z,23.47
2022-08-07T02:56:02.577Z,23.47
2022-08-07T02:58:54.190Z,23.46
2022-08-07T03:01:35.427Z,23.38
2022-08-07T03:04:28.189Z,23.30
2022-08-07T03:08:07.563Z,23.25
2022-08-07T03:10:48.517Z,23.21
2022-08-07T03:13:49.921Z,23.10
2022-08-07T03:16:42.604Z,23.04
2022-08-07T03:22:43.169Z,22.90
2022-08-07T03:26:35.414Z,22.87
2022-08-07T03:29:56.608Z,22.83
2022-08-07T03:33:08.713Z,22.79
2022-08-07T03:39:45.858Z,22.76
2022-08-07T03:49:03.103Z,22.63
2022-08-07T03:52:33.867Z,22.56
2022-08-07T03:56:04.292Z,22.52
2022-08-07T03:59:14.390Z,22.48
2022-08-07T04:02:23.578Z,22.43
2022-08-07T04:05:15.199Z,22.39
2022-08-07T04:12:20.750Z,22.42
2022-08-07T04:14:38.599Z,22.47
2022-08-07T04:18:30.865Z,22.54
2022-08-07T04:24:30.582Z,22.81
2022-08-07T04:27:26.583Z,23.00
2022-08-07T04:30:35.802Z,23.28
2022-08-07T04:33:37.610Z,23.72
2022-08-07T04:36:28.525Z,24.23
2022-08-07T04:39:03.439Z,24.63
2022-08-07T04:42:31.067Z,24.98
2022-08-07T04:46:00.422Z,25.38
2022-08-07T04:58:15.000Z,26.40
2022-08-07T05:01:41.806Z,27.03
2022-08-07T05:04:47.344Z,27.38
2022-08-07T05:07:58.961Z,27.78
2022-08-07T05:14:52.969Z,28.57
2022-08-07T05:31:37.953Z,30.26
2022-08-07T05:34:29.826Z,30.45
2022-08-07T05:40:52.571Z,30.77
2022-08-07T05:44:01.108Z,31.17
2022-08-07T05:46:39.736Z,31.69
2022-08-07T05:49:40.766Z,31.97
2022-08-07T05:52:14.239Z,32.18
2022-08-07T05:55:10.942Z,32.35
2022-08-07T05:58:39.345Z,32.58
2022-08-07T06:01:49.538Z,32.93
2022-08-07T06:08:29.320Z,33.81
2022-08-07T06:11:21.616Z,34.00
2022-08-07T06:14:20.964Z,34.24
2022-08-07T06:20:32.088Z,34.53
2022-08-07T06:24:45.919Z,34.63
2022-08-07T06:31:24.242Z,35.24
2022-08-07T06:40:55.497Z,36.37
2022-08-07T06:44:10.823Z,36.47
2022-08-07T06:47:48.171Z,36.66
2022-08-07T06:57:43.460Z,37.57
2022-08-07T07:03:58.137Z,37.96
2022-08-07T07:07:59.902Z,38.21
2022-08-07T07:10:56.822Z,38.33
2022-08-07T07:13:57.833Z,38.33
2022-08-07T07:17:16.000Z,38.49
2022-08-07T07:24:09.488Z,38.93
2022-08-07T07:34:32.031Z,38.78
2022-08-07T07:41:05.501Z,38.77
2022-08-07T07:44:14.203Z,38.29
2022-08-07T07:47:23.092Z,38.25
2022-08-07T07:50:40.031Z,37.87
2022-08-07T07:56:41.092Z,38.27
2022-08-07T07:59:52.012Z,38.56
2022-08-07T08:04:06.071Z,38.23
2022-08-07T08:06:13.942Z,38.28
2022-08-07T08:12:05.195Z,38.37
2022-08-07T08:14:55.798Z,39.00
2022-08-07T08:17:58.243Z,39.12
2022-08-07T08:21:56.014Z,38.61
2022-08-07T08:32:18.947Z,38.71
2022-08-07T08:38:38.123Z,38.89
2022-08-07T08:44:55.151Z,39.28
2022-08-07T08:54:24.759Z,38.17
2022-08-07T08:56:59.520Z,37.43
2022-08-07T09:00:06.897Z,36.89
2022-08-07T09:03:23.295Z,36.73
2022-08-07T09:06:40.268Z,36.67
2022-08-07T09:09:56.774Z,37.04
2022-08-07T09:12:55.830Z,37.34
2022-08-07T09:16:25.929Z,37.51
2022-08-07T09:19:55.356Z,37.23
2022-08-07T09:24:31.218Z,37.29
2022-08-07T09:26:23.885Z,37.33
2022-08-07T09:30:06.306Z,37.12
2022-08-07T09:33:05.232Z,37.00
2022-08-07T09:36:07.622Z,37.20
2022-08-07T09:39:17.957Z,37.23
2022-08-07T09:47:25.462Z,36.99
2022-08-07T09:50:01.670Z,37.57
2022-08-07T09:52:33.547Z,37.79
2022-08-07T09:56:03.135Z,38.02
2022-08-07T09:59:07.767Z,38.73
2022-08-07T10:02:24.150Z,39.58
2022-08-07T10:05:58.986Z,40.01
2022-08-07T10:09:06.636Z,39.78
2022-08-07T10:16:01.890Z,39.78
2022-08-07T10:19:38.407Z,39.41
2022-08-07T10:22:36.805Z,40.18
2022-08-07T10:25:52.926Z,40.08
2022-08-07T10:28:52.741Z,39.93
2022-08-07T10:32:36.497Z,39.52
2022-08-07T10:36:05.497Z,39.43
2022-08-07T10:42:20.832Z,39.54
2022-08-07T10:45:45.219Z,39.61
2022-08-07T10:48:59.604Z,40.25
2022-08-07T10:55:46.719Z,40.92
2022-08-07T10:59:13.612Z,41.02
2022-08-07T11:02:05.142Z,41.45
2022-08-07T11:05:10.728Z,41.41
2022-08-07T11:08:00.425Z,41.20
2022-08-07T11:14:45.196Z,40.97
2022-08-07T11:17:23.232Z,40.80
2022-08-07T11:27:20.673Z,41.46
2022-08-07T11:30:55.749Z,42.05
2022-08-07T11:34:06.498Z,42.30
2022-08-07T11:41:00.518Z,41.24
2022-08-07T11:44:12.604Z,41.46
2022-08-07T11:47:39.016Z,40.69
2022-08-07T11:54:16.497Z,39.32
2022-08-07T12:01:02.648Z,38.71
2022-08-07T12:04:11.777Z,38.26
2022-08-07T12:10:17.491Z,37.24
2022-08-07T12:20:49.317Z,36.10
2022-08-07T12:24:05.455Z,36.12
2022-08-07T12:26:46.977Z,36.11
2022-08-07T12:29:48.046Z,35.96
2022-08-07T12:36:11.488Z,35.23
2022-08-07T12:42:13.103Z,34.67
2022-08-07T12:52:12.135Z,34.09
2022-08-07T12:55:03.690Z,33.96
2022-08-07T12:58:00.461Z,33.83
2022-08-07T13:01:12.547Z,33.72
2022-08-07T13:04:34.242Z,33.67
2022-08-07T13:08:13.560Z,33.51
2022-08-07T13:11:31.117Z,33.37
2022-08-07T13:14:46.853Z,33.33
2022-08-07T13:30:53.151Z,33.01
2022-08-07T13:34:32.622Z,32.94
2022-08-07T13:37:30.219Z,32.94
2022-08-07T13:40:34.975Z,32.92
2022-08-07T13:44:10.537Z,32.86
2022-08-07T13:51:00.279Z,32.82
2022-08-07T13:53:59.542Z,32.87
2022-08-07T13:56:51.599Z,32.81
2022-08-07T14:00:02.349Z,32.75
2022-08-07T14:06:41.487Z,32.70
2022-08-07T14:10:17.844Z,32.64
2022-08-07T14:13:22.060Z,32.42
2022-08-07T14:23:59.324Z,32.28
2022-08-07T14:30:08.091Z,32.06
2022-08-07T14:33:00.239Z,32.24
2022-08-07T14:39:04.624Z,32.37
2022-08-07T14:44:59.532Z,32.17
2022-08-07T14:57:58.053Z,31.82
2022-08-07T15:01:21.404Z,31.96
2022-08-07T15:04:30.635Z,32.22
2022-08-07T15:10:26.706Z,32.30
2022-08-07T15:16:54.953Z,32.21
2022-08-07T15:20:32.430Z,32.10
2022-08-07T15:26:56.733Z,31.96
2022-08-07T15:30:09.681Z,31.82
2022-08-07T15:33:03.722Z,31.78
2022-08-07T15:49:14.305Z,31.47
2022-08-07T15:56:02.959Z,31.53
2022-08-07T16:02:31.357Z,31.62
2022-08-07T16:05:36.055Z,31.67
2022-08-07T16:12:28.748Z,31.30
2022-08-07T16:15:55.146Z,31.23
2022-08-07T16:19:43.204Z,31.16
2022-08-07T16:23:09.952Z,31.06
2022-08-07T16:26:37.677Z,31.03
2022-08-07T16:30:11.909Z,30.97
2022-08-07T16:33:00.064Z,30.97
2022-08-07T16:39:49.124Z,30.97
2022-08-07T16:43:08.711Z,30.97
2022-08-07T16:47:03.021Z,30.90
2022-08-07T16:58:00.926Z,30.58
2022-08-07T17:00:51.715Z,30.52
2022-08-07T17:10:32.610Z,30.48
2022-08-07T17:14:19.255Z,30.36
2022-08-07T17:16:58.006Z,30.39
2022-08-07T17:23:16.884Z,30.42
2022-08-07T17:30:14.141Z,30.35
2022-08-07T17:34:18.158Z,30.17
2022-08-07T17:37:09.724Z,30.04
2022-08-07T17:40:42.676Z,30.00
2022-08-07T17:44:02.262Z,29.90
2022-08-07T17:46:59.918Z,29.88
2022-08-07T17:49:44.463Z,29.73
2022-08-07T17:52:36.323Z,29.69
2022-08-07T17:58:51.757Z,29.50
2022-08-07T18:02:05.111Z,29.30
2022-08-07T18:07:46.910Z,29.12
2022-08-07T18:12:06.775Z,28.93
2022-08-07T18:16:58.055Z,28.53
2022-08-07T18:21:06.592Z,28.34
2022-08-07T18:22:43.756Z,28.10
2022-08-07T18:25:40.582Z,27.89
2022-08-07T18:28:35.681Z,27.68
2022-08-07T18:32:18.353Z,27.62
2022-08-07T18:35:28.149Z,27.55
2022-08-07T18:38:57.675Z,27.44
2022-08-07T18:42:20.923Z,27.29
2022-08-07T18:50:31.321Z,27.30
2022-08-07T18:55:57.449Z,27.31
2022-08-07T19:02:36.123Z,27.30
2022-08-07T19:06:03.407Z,27.27
2022-08-07T19:08:46.605Z,27.23
2022-08-07T19:14:51.943Z,27.10
2022-08-07T19:22:04.363Z,26.98
2022-08-07T19:25:12.348Z,26.98
2022-08-07T19:31:05.545Z,27.00
2022-08-07T19:32:10.569Z,27.09
2022-08-07T19:35:08.623Z,27.11
2022-08-07T19:38:02.611Z,27.02
2022-08-07T19:41:15.152Z,26.98
2022-08-07T19:44:19.061Z,26.89
2022-08-07T19:47:36.441Z,26.80
2022-08-07T19:50:44.223Z,26.60
2022-08-07T19:54:34.958Z,26.56
2022-08-07T19:57:51.951Z,26.65
2022-08-07T20:06:02.233Z,26.72
2022-08-07T20:10:36.577Z,26.69
2022-08-07T20:12:31.293Z,26.52
2022-08-07T20:18:34.467Z,26.13
2022-08-07T20:21:47.171Z,26.14
2022-08-07T20:24:42.016Z,26.16
2022-08-07T20:31:01.854Z,26.05
2022-08-07T20:34:09.842Z,26.06
2022-08-07T20:40:32.250Z,26.08
2022-08-07T20:43:14.824Z,25.99
2022-08-07T20:46:33.410Z,25.91
2022-08-07T20:55:56.629Z,25.59
2022-08-07T20:58:35.587Z,25.51
2022-08-07T21:01:58.164Z,25.47
2022-08-07T21:04:34.460Z,25.48
2022-08-07T21:08:16.987Z,25.47
2022-08-07T21:14:33.460Z,25.43
2022-08-07T21:18:09.079Z,25.44
2022-08-07T21:21:56.598Z,25.42
2022-08-07T21:28:50.048Z,25.32
2022-08-07T21:32:47.308Z,25.14
2022-08-07T21:35:34.535Z,24.95
2022-08-07T21:38:39.125Z,24.87
2022-08-07T21:42:02.785Z,24.75
2022-08-07T21:45:42.092Z,24.69
2022-08-07T21:48:43.776Z,24.67
2022-08-07T21:52:09.073Z,24.68
2022-08-07T21:55:41.162Z,24.65
2022-08-07T21:58:33.354Z,24.54
2022-08-07T22:01:14.494Z,24.44
2022-08-07T22:04:11.460Z,24.39
2022-08-07T22:06:50.963Z,24.30
2022-08-07T22:09:31.446Z,24.22
2022-08-07T22:16:38.901Z,23.98
2022-08-07T22:19:37.117Z,23.91
2022-08-07T22:22:40.000Z,23.88
2022-08-07T22:25:26.509Z,23.86
2022-08-07T22:28:32.436Z,23.83
2022-08-07T22:34:58.025Z,23.70
2022-08-07T22:38:04.122Z,23.72
2022-08-07T22:40:46.071Z,23.70
2022-08-07T22:47:16.743Z,23.75
2022-08-07T22:54:07.946Z,23.75
2022-08-07T23:00:38.349Z,23.62
2022-08-07T23:03:58.340Z,23.63
2022-08-07T23:07:41.619Z,23.70
2022-08-07T23:14:15.026Z,23.72
2022-08-07T23:17:34.463Z,23.67
2022-08-07T23:21:02.318Z,23.63
2022-08-07T23:27:33.512Z,23.67
2022-08-07T23:30:35.882Z,23.68
2022-08-07T23:34:33.773Z,23.66
2022-08-07T23:40:08.416Z,23.66
2022-08-07T23:43:39.244Z,23.64
2022-08-07T23:50:54.567Z,23.68
2022-08-07T23:53:51.935Z,23.71
2022-08-07T23:56:53.802Z,23.79
